sensor_id;sensor_type;location;lat;lon;timestamp;pressure;altitude;pressure_sealevel;temperature;humidity
55014;BME280;40916;51.632;5.552;2022-10-18T00:00:42;1021.4544751763877;;;14.50589633259144;0
55014;BME280;40916;51.632;5.552;2022-10-18T00:01:42;1021.401477420872;;;14.492733332714952;0
55014;BME280;40916;51.632;5.552;2022-10-18T00:02:42;1021.5244846554539;;;14.49931501287044;0
55014;BME280;40916;51.632;5.552;2022-10-18T00:03:42;1021.4163245825712;;;14.492733332714952;0
55014;BME280;40916;51.632;5.552;2022-10-18T00:04:42;1021.4385953287597;;;14.492733332714952;0
55014;BME280;40916;51.632;5.552;2022-10-18T00:05:42;1021.4428240482638;;;14.49931501287044;0
55014;BME280;40916;51.632;5.552;2022-10-18T00:06:43;1021.502729857235;;;14.50589633259144;0
55014;BME280;40916;51.632;5.552;2022-10-18T00:07:43;1021.4618989721066;;;14.50589633259144;0
55014;BME280;40916;51.632;5.552;2022-10-18T00:08:43;1021.4067339299835;;;14.512477291984908;0
55014;BME280;40916;51.632;5.552;2022-10-18T00:09:43;1021.3987967239672;;;14.50589633259144;0
55014;BME280;40916;51.632;5.552;2022-10-18T00:10:43;1021.4480778814166;;;14.51905789115775;0
55014;BME280;40916;51.632;5.552;2022-10-18T00:11:43;1021.3436308130667;;;14.512477291984908;0
55014;BME280;40916;51.632;5.552;2022-10-18T00:12:43;1021.3817719008933;;;14.52563813021683;0
55014;BME280;40916;51.632;5.552;2022-10-18T00:13:43;1021.3404298355247;;;14.51905789115775;0
55014;BME280;40916;51.632;5.552;2022-10-18T00:14:43;1021.3780598468771;;;14.52563813021683;0
55014;BME280;40916;51.632;5.552;2022-10-18T00:15:47;1021.3218698379262;;;14.51905789115775;0
55014;BME280;40916;51.632;5.552;2022-10-18T00:16:44;1021.3552778357875;;;14.51905789115775;0
55014;BME280;40916;51.632;5.552;2022-10-18T00:17:44;1021.2736138583671;;;14.51905789115775;0
55014;BME280;40916;51.632;5.552;2022-10-18T00:18:44;1021.2359844004345;;;14.512477291984908;0
55014;BME280;40916;51.632;5.552;2022-10-18T00:19:44;1021.2057783002714;;;14.50589633259144;0
55014;BME280;40916;51.632;5.552;2022-10-18T00:20:44;1021.2094901899408;;;14.50589633259144;0
55014;BME280;40916;51.632;5.552;2022-10-18T00:21:44;1021.3330058361213;;;14.51905789115775;0
55014;BME280;40916;51.632;5.552;2022-10-18T00:22:44;1021.2227963339589;;;14.486151292017993;0
55014;BME280;40916;51.632;5.552;2022-10-18T00:23:45;1021.3134231499447;;;14.50589633259144;0
55014;BME280;40916;51.632;5.552;2022-10-18T00:24:44;1021.3049709171444;;;14.492733332714952;0
55014;BME280;40916;51.632;5.552;2022-10-18T00:25:45;1021.1804141890195;;;14.466403005607706;0
55014;BME280;40916;51.632;5.552;2022-10-18T00:26:45;1021.2700124009782;;;14.472986128571467;0
55014;BME280;40916;51.632;5.552;2022-10-18T00:27:45;1021.273203508877;;;14.466403005607706;0
55014;BME280;40916;51.632;5.552;2022-10-18T00:28:45;1021.2026836188707;;;14.466403005607706;0
55014;BME280;40916;51.632;5.552;2022-10-18T00:29:45;1021.2795809248322;;;14.453235676663386;0
55014;BME280;40916;51.632;5.552;2022-10-18T00:30:45;1021.2451269530719;;;14.440066902981759;0
55014;BME280;40916;51.632;5.552;2022-10-18T00:31:45;1021.2403589573086;;;14.426896683704346;0
55014;BME280;40916;51.632;5.552;2022-10-18T00:32:45;1021.2626264933309;;;14.426896683704346;0
55014;BME280;40916;51.632;5.552;2022-10-18T00:33:46;1021.1899841756813;;;14.400551904924853;0
55014;BME280;40916;51.632;5.552;2022-10-18T00:34:45;1021.2774715197717;;;14.426896683704346;0
55014;BME280;40916;51.632;5.552;2022-10-18T00:35:45;1021.3479854218675;;;14.426896683704346;0
55014;BME280;40916;51.632;5.552;2022-10-18T00:36:46;1021.3426735420429;;;14.407138642416538;0
55014;BME280;40916;51.632;5.552;2022-10-18T00:37:46;1021.3246528148255;;;14.413725017971991;0
55014;BME280;40916;51.632;5.552;2022-10-18T00:38:46;1021.3675759394231;;;14.393964805389352;0
55014;BME280;40916;51.632;5.552;2022-10-18T00:39:46;1021.3039500417859;;;14.387377343702408;0
55014;BME280;40916;51.632;5.552;2022-10-18T00:40:46;1021.3633250977093;;;14.387377343702408;0
55014;BME280;40916;51.632;5.552;2022-10-18T00:41:46;1021.3177108865361;;;14.374201333443452;0
55014;BME280;40916;51.632;5.552;2022-10-18T00:42:46;1021.3882167649837;;;14.374201333443452;0
55014;BME280;40916;51.632;5.552;2022-10-18T00:43:51;1021.3071204317879;;;14.380789519756345;0
55014;BME280;40916;51.632;5.552;2022-10-18T00:45:05;1021.3028675492831;;;14.374201333443452;0
55014;BME280;40916;51.632;5.552;2022-10-18T00:45:47;1021.3086539206305;;;14.354434599225993;0
55014;BME280;40916;51.632;5.552;2022-10-18T00:46:47;1021.3086539206305;;;14.354434599225993;0
55014;BME280;40916;51.632;5.552;2022-10-18T00:47:49;1021.2561571215557;;;14.347844962367773;0
55014;BME280;40916;51.632;5.552;2022-10-18T00:48:47;1021.2576631047817;;;14.321482784794512;0
55014;BME280;40916;51.632;5.552;2022-10-18T00:49:48;1021.3504233629493;;;14.321482784794512;0
55014;BME280;40916;51.632;5.552;2022-10-18T00:50:47;1021.3276049755378;;;14.314891332325924;0
55014;BME280;40916;51.632;5.552;2022-10-18T00:51:48;1021.326488633505;;;14.301707336941575;0
55014;BME280;40916;51.632;5.552;2022-10-18T00:52:48;1021.3518996059408;;;14.2951147938094;0
55014;BME280;40916;51.632;5.552;2022-10-18T00:53:48;1021.380454262693;;;14.281928616123693;0
55014;BME280;40916;51.632;5.552;2022-10-18T00:54:48;1021.4032793769649;;;14.28852188690621;0
55014;BME280;40916;51.632;5.552;2022-10-18T00:55:48;1021.3910186608547;;;14.275334981353485;0
55014;BME280;40916;51.632;5.552;2022-10-18T00:56:48;1021.2674545482291;;;14.262146619416367;0
55014;BME280;40916;51.632;5.552;2022-10-18T00:57:48;1021.4047221215583;;;14.262146619416367;0
55014;BME280;40916;51.632;5.552;2022-10-18T00:58:48;1021.3496413964803;;;14.268740982487191;0
55014;BME280;40916;51.632;5.552;2022-10-18T00:59:48;1021.3188242194415;;;14.255551892032525;0
55014;BME280;40916;51.632;5.552;2022-10-18T01:00:48;1021.3516417791162;;;14.248956800227138;0
55014;BME280;40916;51.632;5.552;2022-10-18T01:01:48;1021.4361056994452;;;14.281928616123693;0
55014;BME280;40916;51.632;5.552;2022-10-18T01:02:49;1021.4058588306989;;;14.275334981353485;0
55014;BME280;40916;51.632;5.552;2022-10-18T01:03:49;1021.3941612595665;;;14.268740982487191;0
55014;BME280;40916;51.632;5.552;2022-10-18T01:04:49;1021.4732066724318;;;14.281928616123693;0
55014;BME280;40916;51.632;5.552;2022-10-18T01:05:49;1021.4546561844232;;;14.281928616123693;0
55014;BME280;40916;51.632;5.552;2022-10-18T01:06:52;1021.4446546422002;;;14.2951147938094;0
55014;BME280;40916;51.632;5.552;2022-10-18T01:07:54;1021.4409444392952;;;14.2951147938094;0
55014;BME280;40916;51.632;5.552;2022-10-18T01:08:54;1021.4817566779179;;;14.2951147938094;0
55014;BME280;40916;51.632;5.552;2022-10-18T01:09:52;1021.4452167626981;;;14.301707336941575;0
55014;BME280;40916;51.632;5.552;2022-10-18T01:10:51;1021.4717495467869;;;14.308299516411008;0
55014;BME280;40916;51.632;5.552;2022-10-18T01:11:54;1021.5322336887596;;;14.321482784794512;0
55014;BME280;40916;51.632;5.552;2022-10-18T01:12:52;1021.5014320293384;;;14.308299516411008;0
55014;BME280;40916;51.632;5.552;2022-10-18T01:13:55;1021.5222152816019;;;14.334664599825224;0
55014;BME280;40916;51.632;5.552;2022-10-18T01:14:51;1021.5852941972138;;;14.334664599825224;0
55014;BME280;40916;51.632;5.552;2022-10-18T01:15:52;1021.4877086840957;;;14.321482784794512;0
55014;BME280;40916;51.632;5.552;2022-10-18T01:16:52;1021.5465163151383;;;14.314891332325924;0
55014;BME280;40916;51.632;5.552;2022-10-18T01:17:51;1021.5656274537143;;;14.321482784794512;0
55014;BME280;40916;51.632;5.552;2022-10-18T01:18:51;1021.505142340203;;;14.308299516411008;0
55014;BME280;40916;51.632;5.552;2022-10-18T01:20:01;1021.5077281101329;;;14.2951147938094;0
55014;BME280;40916;51.632;5.552;2022-10-18T01:21:03;1021.5151485204283;;;14.2951147938094;0
55014;BME280;40916;51.632;5.552;2022-10-18T01:21:52;1021.5342629410567;;;14.301707336941575;0
55014;BME280;40916;51.632;5.552;2022-10-18T01:22:52;1021.5240109599293;;;14.268740982487191;0
55014;BME280;40916;51.632;5.552;2022-10-18T01:23:59;1021.5128809797944;;;14.268740982487191;0
55014;BME280;40916;51.632;5.552;2022-10-18T01:24:58;1021.5536909122886;;;14.268740982487191;0
55014;BME280;40916;51.632;5.552;2022-10-18T01:25:52;1021.5091709866585;;;14.268740982487191;0
55014;BME280;40916;51.632;5.552;2022-10-18T01:26:56;1021.5531196847863;;;14.262146619416367;0
55014;BME280;40916;51.632;5.552;2022-10-18T01:27:54;1021.4926153648984;;;14.248956800227138;0
55014;BME280;40916;51.632;5.552;2022-10-18T01:28:53;1021.5191579615905;;;14.255551892032525;0
55014;BME280;40916;51.632;5.552;2022-10-18T01:29:54;1021.5148743681254;;;14.248956800227138;0
55014;BME280;40916;51.632;5.552;2022-10-18T01:30:52;1021.500608526174;;;14.255551892032525;0
55014;BME280;40916;51.632;5.552;2022-10-18T01:31:52;1021.5451271762641;;;14.255551892032525;0
55014;BME280;40916;51.632;5.552;2022-10-18T01:32:52;1021.4957502525615;;;14.242361343891627;0
55014;BME280;40916;51.632;5.552;2022-10-18T01:33:52;1021.4945958446967;;;14.229169337195746;0
55014;BME280;40916;51.632;5.552;2022-10-18T01:34:58;1021.4983055192787;;;14.229169337195746;0
55014;BME280;40916;51.632;5.552;2022-10-18T01:35:54;1021.5533703412798;;;14.22257278661801;0
55014;BME280;40916;51.632;5.552;2022-10-18T01:36:53;1021.5199837354162;;;14.22257278661801;0
55014;BME280;40916;51.632;5.552;2022-10-18T01:37:52;1021.4737216454442;;;14.20278094466055;0
55014;BME280;40916;51.632;5.552;2022-10-18T01:38:53;1021.4403364947447;;;14.20278094466055;0
55014;BME280;40916;51.632;5.552;2022-10-18T01:39:53;1021.5330730487004;;;14.20278094466055;0
55014;BME280;40916;51.632;5.552;2022-10-18T01:40:53;1021.4762590452478;;;14.189584557080273;0
55014;BME280;40916;51.632;5.552;2022-10-18T01:41:53;1021.386058995663;;;14.176386707463084;0
55014;BME280;40916;51.632;5.552;2022-10-18T01:42:53;1021.5553298329191;;;14.20278094466055;0
55014;BME280;40916;51.632;5.552;2022-10-18T01:43:54;1021.5201823936663;;;14.18298581508079;0
55014;BME280;40916;51.632;5.552;2022-10-18T01:44:53;1021.4930356269923;;;14.169787234118104;0
55014;BME280;40916;51.632;5.552;2022-10-18T01:45:53;1021.5047549528148;;;14.176386707463084;0
55014;BME280;40916;51.632;5.552;2022-10-18T01:46:54;1021.4801247356153;;;14.1499866186284;0
55014;BME280;40916;51.632;5.552;2022-10-18T01:47:53;1021.5357603133015;;;14.1499866186284;0
55014;BME280;40916;51.632;5.552;2022-10-18T01:48:54;1021.6173592098809;;;14.1499866186284;0
55014;BME280;40916;51.632;5.552;2022-10-18T01:49:55;1021.5982148499469;;;14.143385681282986;0
55014;BME280;40916;51.632;5.552;2022-10-18T01:50:54;1021.5605248414693;;;14.136784377664402;0
55014;BME280;40916;51.632;5.552;2022-10-18T01:51:54;1021.5333582559057;;;14.123580671170465;0
55014;BME280;40916;51.632;5.552;2022-10-18T01:52:54;1021.5444847377754;;;14.123580671170465;0
55014;BME280;40916;51.632;5.552;2022-10-18T01:53:54;1021.5519023929609;;;14.123580671170465;0
55014;BME280;40916;51.632;5.552;2022-10-18T01:54:54;1021.5673409627946;;;14.130182707663344;0
55014;BME280;40916;51.632;5.552;2022-10-18T01:56:00;1021.5493980396603;;;14.136784377664402;0
55014;BME280;40916;51.632;5.552;2022-10-18T01:56:55;1021.5154166367354;;;14.130182707663344;0
55014;BME280;40916;51.632;5.552;2022-10-18T01:57:57;1021.5562143194974;;;14.130182707663344;0
55014;BME280;40916;51.632;5.552;2022-10-18T01:58:58;1021.5394693527829;;;14.1499866186284;0
55014;BME280;40916;51.632;5.552;2022-10-18T01:59:56;1021.5679427099477;;;14.136784377664402;0
55014;BME280;40916;51.632;5.552;2022-10-18T02:00:57;1021.5234355063457;;;14.136784377664402;0
55014;BME280;40916;51.632;5.552;2022-10-18T02:01:57;1021.5302521560438;;;14.130182707663344;0
55014;BME280;40916;51.632;5.552;2022-10-18T02:02:55;1021.5481935653077;;;14.123580671170465;0
55014;BME280;40916;51.632;5.552;2022-10-18T02:03:56;1021.4870368414175;;;14.103772361646683;0
55014;BME280;40916;51.632;5.552;2022-10-18T02:04:58;1021.5432743249154;;;14.110375498271594;0
55014;BME280;40916;51.632;5.552;2022-10-18T02:05:57;1021.5049717196686;;;14.0971688580921;0
55014;BME280;40916;51.632;5.552;2022-10-18T02:06:56;1021.5562816151745;;;14.09056498749828;0
55014;BME280;40916;51.632;5.552;2022-10-18T02:07:57;1021.5025227709798;;;14.070751172384998;0
55014;BME280;40916;51.632;5.552;2022-10-18T02:08:56;1021.5655656140357;;;14.070751172384998;0
55014;BME280;40916;51.632;5.552;2022-10-18T02:09:58;1021.5946154979645;;;14.064145832537633;0
55014;BME280;40916;51.632;5.552;2022-10-18T02:10:57;1021.5371314986578;;;14.044327607029672;0
55014;BME280;40916;51.632;5.552;2022-10-18T02:11:56;1021.5562938122935;;;14.050934049969825;0
55014;BME280;40916;51.632;5.552;2022-10-18T02:12:56;1021.6162464274202;;;14.05754012510252;0
55014;BME280;40916;51.632;5.552;2022-10-18T02:13:57;1021.63911572377;;;14.064145832537633;0
55014;BME280;40916;51.632;5.552;2022-10-18T02:14:56;1021.6162464274202;;;14.05754012510252;0
55014;BME280;40916;51.632;5.552;2022-10-18T02:15:58;1021.63911572377;;;14.064145832537633;0
55014;BME280;40916;51.632;5.552;2022-10-18T02:16:57;1021.5952328464077;;;14.070751172384998;0
55014;BME280;40916;51.632;5.552;2022-10-18T02:17:56;1021.4951059682153;;;14.070751172384998;0
55014;BME280;40916;51.632;5.552;2022-10-18T02:18:57;1021.5698894805357;;;14.077356144754408;0
55014;BME280;40916;51.632;5.552;2022-10-18T02:19:57;1021.5556693913387;;;14.083960749755597;0
55014;BME280;40916;51.632;5.552;2022-10-18T02:20:57;1021.5235147907014;;;14.0971688580921;0
55014;BME280;40916;51.632;5.552;2022-10-18T02:21:57;1021.5123889477184;;;14.0971688580921;0
55014;BME280;40916;51.632;5.552;2022-10-18T02:22:57;1021.4746932694102;;;14.09056498749828;0
55014;BME280;40916;51.632;5.552;2022-10-18T02:23:57;1021.4419253008065;;;14.0971688580921;0
55014;BME280;40916;51.632;5.552;2022-10-18T02:24:58;1021.4382166890224;;;14.0971688580921;0
55014;BME280;40916;51.632;5.552;2022-10-18T02:25:57;1021.4011305778421;;;14.0971688580921;0
55014;BME280;40916;51.632;5.552;2022-10-18T02:26:57;1021.4555396815601;;;14.083960749755597;0
55014;BME280;40916;51.632;5.552;2022-10-18T02:27:58;1021.4883034605193;;;14.077356144754408;0
55014;BME280;40916;51.632;5.552;2022-10-18T02:28:58;1021.498198401876;;;14.064145832537633;0
55014;BME280;40916;51.632;5.552;2022-10-18T02:29:58;1021.4642062685365;;;14.05754012510252;0
55014;BME280;40916;51.632;5.552;2022-10-18T02:31:01;1021.4901643300327;;;14.05754012510252;0
55014;BME280;40916;51.632;5.552;2022-10-18T02:31:59;1021.4407185925709;;;14.044327607029672;0
55014;BME280;40916;51.632;5.552;2022-10-18T02:33:00;1021.4518431544802;;;14.044327607029672;0
55014;BME280;40916;51.632;5.552;2022-10-18T02:33:59;1021.411053099474;;;14.044327607029672;0
55014;BME280;40916;51.632;5.552;2022-10-18T02:34:59;1021.5142600676186;;;14.037720796172145;0
55014;BME280;40916;51.632;5.552;2022-10-18T02:35:59;1021.462923561564;;;14.004681219273596;0
55014;BME280;40916;51.632;5.552;2022-10-18T02:36:59;1021.4653684105122;;;13.991462809240431;0
55014;BME280;40916;51.632;5.552;2022-10-18T02:37:59;1021.591432424853;;;13.991462809240431;0
55014;BME280;40916;51.632;5.552;2022-10-18T02:39:00;1021.4726652471963;;;13.951798724449642;0
55014;BME280;40916;51.632;5.552;2022-10-18T02:39:59;1021.4726652471963;;;13.951798724449642;0
55014;BME280;40916;51.632;5.552;2022-10-18T02:40:59;1021.5498774339986;;;13.945186751182678;0
55014;BME280;40916;51.632;5.552;2022-10-18T02:41:59;1021.5337553729804;;;13.931961695823802;0
55014;BME280;40916;51.632;5.552;2022-10-18T02:42:59;1021.6109587888993;;;13.925348613510593;0
55014;BME280;40916;51.632;5.552;2022-10-18T02:43:59;1021.5645158239964;;;13.905507146707219;0
55014;BME280;40916;51.632;5.552;2022-10-18T02:44:59;1021.5588390737146;;;13.88566234778095;0
55014;BME280;40916;51.632;5.552;2022-10-18T02:45:59;1021.5773736546619;;;13.88566234778095;0
55014;BME280;40916;51.632;5.552;2022-10-18T02:47:00;1021.5477183265983;;;13.88566234778095;0
55014;BME280;40916;51.632;5.552;2022-10-18T02:48:00;1021.5254768356331;;;13.88566234778095;0
55014;BME280;40916;51.632;5.552;2022-10-18T02:49:00;1021.5477183265983;;;13.88566234778095;0
55014;BME280;40916;51.632;5.552;2022-10-18T02:50:00;1021.4746440762603;;;13.859197427399593;0
55014;BME280;40916;51.632;5.552;2022-10-18T02:51:00;1021.5922013215978;;;13.88566234778095;0
55014;BME280;40916;51.632;5.552;2022-10-18T02:52:00;1021.5834660118868;;;13.872430629171763;0
55014;BME280;40916;51.632;5.552;2022-10-18T02:53:00;1021.6632923359749;;;13.892277651177064;0
55014;BME280;40916;51.632;5.552;2022-10-18T02:54:00;1021.6552189276755;;;13.88566234778095;0
55014;BME280;40916;51.632;5.552;2022-10-18T02:55:00;1021.6440981711207;;;13.88566234778095;0
55014;BME280;40916;51.632;5.552;2022-10-18T02:56:01;1021.6447574752036;;;13.892277651177064;0
55014;BME280;40916;51.632;5.552;2022-10-18T02:57:01;1021.6824855128269;;;13.898892584115512;0
55014;BME280;40916;51.632;5.552;2022-10-18T02:58:01;1021.629929588765;;;13.892277651177064;0
55014;BME280;40916;51.632;5.552;2022-10-18T02:59:01;1021.6955728760834;;;13.918735161293938;0
55014;BME280;40916;51.632;5.552;2022-10-18T03:00:02;1021.6417082315007;;;13.898892584115512;0
55014;BME280;40916;51.632;5.552;2022-10-18T03:01:01;1021.6547938360445;;;13.918735161293938;0
55014;BME280;40916;51.632;5.552;2022-10-18T03:02:01;1021.687504704388;;;13.91212133906308;0
55014;BME280;40916;51.632;5.552;2022-10-18T03:03:01;1021.6417082315007;;;13.898892584115512;0
55014;BME280;40916;51.632;5.552;2022-10-18T03:04:02;1021.6305871573169;;;13.898892584115512;0
55014;BME280;40916;51.632;5.552;2022-10-18T03:05:02;1021.5261344379068;;;13.892277651177064;0
55014;BME280;40916;51.632;5.552;2022-10-18T03:06:02;1021.6393119893698;;;13.91212133906308;0
55014;BME280;40916;51.632;5.552;2022-10-18T03:07:02;1021.6776890656475;;;13.925348613510593;0
55014;BME280;40916;51.632;5.552;2022-10-18T03:08:02;1021.6844513182568;;;13.918735161293938;0
55014;BME280;40916;51.632;5.552;2022-10-18T03:09:03;1021.6918656900203;;;13.918735161293938;0
55014;BME280;40916;51.632;5.552;2022-10-18T03:10:02;1021.7160621959765;;;13.938574408344273;0
55014;BME280;40916;51.632;5.552;2022-10-18T03:11:02;1021.7018806871405;;;13.945186751182678;0
55014;BME280;40916;51.632;5.552;2022-10-18T03:12:03;1021.7284792093923;;;13.951798724449642;0
55014;BME280;40916;51.632;5.552;2022-10-18T03:13:03;1021.7044569888382;;;13.971632427927432;0
55014;BME280;40916;51.632;5.552;2022-10-18T03:14:03;1021.7384662530542;;;13.97824292401397;0
55014;BME280;40916;51.632;5.552;2022-10-18T03:15:03;1021.6593245009308;;;13.965021562711502;0
55014;BME280;40916;51.632;5.552;2022-10-18T03:16:03;1021.7576440861652;;;13.984853051081515;0
55014;BME280;40916;51.632;5.552;2022-10-18T03:17:06;1021.6952499535104;;;13.991462809240431;0
55014;BME280;40916;51.632;5.552;2022-10-18T03:18:03;1021.7545742982145;;;13.991462809240431;0
55014;BME280;40916;51.632;5.552;2022-10-18T03:19:03;1021.6791436166287;;;13.97824292401397;0
55014;BME280;40916;51.632;5.552;2022-10-18T03:20:04;1021.6952499535104;;;13.991462809240431;0
55014;BME280;40916;51.632;5.552;2022-10-18T03:21:04;1021.6915421829954;;;13.991462809240431;0
55014;BME280;40916;51.632;5.552;2022-10-18T03:22:04;1021.6995933406498;;;13.998072198601037;0
55014;BME280;40916;51.632;5.552;2022-10-18T03:23:04;1021.6625151083631;;;13.998072198601037;0
55014;BME280;40916;51.632;5.552;2022-10-18T03:24:04;1021.6291447096563;;;13.998072198601037;0
55014;BME280;40916;51.632;5.552;2022-10-18T03:25:04;1021.602555726955;;;13.991462809240431;0
55014;BME280;40916;51.632;5.552;2022-10-18T03:26:04;1021.6644112599673;;;14.017898154995446;0
55014;BME280;40916;51.632;5.552;2022-10-18T03:27:04;1021.6903671370668;;;14.017898154995446;0
55014;BME280;40916;51.632;5.552;2022-10-18T03:28:04;1021.7367484710942;;;14.037720796172145;0
55014;BME280;40916;51.632;5.552;2022-10-18T03:29:04;1021.6384553888007;;;14.017898154995446;0
55014;BME280;40916;51.632;5.552;2022-10-18T03:30:05;1021.6322949883354;;;14.031113617287279;0
55014;BME280;40916;51.632;5.552;2022-10-18T03:31:05;1021.6582516015567;;;14.031113617287279;0
55014;BME280;40916;51.632;5.552;2022-10-18T03:32:05;1021.5933762582537;;;14.050934049969825;0
55014;BME280;40916;51.632;5.552;2022-10-18T03:33:05;1021.6112953282727;;;14.044327607029672;0
55014;BME280;40916;51.632;5.552;2022-10-18T03:34:05;1021.6953598128855;;;14.070751172384998;0
55014;BME280;40916;51.632;5.552;2022-10-18T03:35:05;1021.6082092400285;;;14.050934049969825;0
55014;BME280;40916;51.632;5.552;2022-10-18T03:36:05;1021.645291702942;;;14.050934049969825;0
55014;BME280;40916;51.632;5.552;2022-10-18T03:37:05;1021.6867041310506;;;14.05754012510252;0
55014;BME280;40916;51.632;5.552;2022-10-18T03:38:05;1021.7571618783974;;;14.05754012510252;0
55014;BME280;40916;51.632;5.552;2022-10-18T03:39:05;1021.8127864466562;;;14.05754012510252;0
55014;BME280;40916;51.632;5.552;2022-10-18T03:40:06;1021.7651997915873;;;14.064145832537633;0
55014;BME280;40916;51.632;5.552;2022-10-18T03:41:06;1021.8202030578159;;;14.05754012510252;0
55014;BME280;40916;51.632;5.552;2022-10-18T03:42:06;1021.7868283114112;;;14.05754012510252;0
55014;BME280;40916;51.632;5.552;2022-10-18T03:43:06;1021.7213186704578;;;14.070751172384998;0
55014;BME280;40916;51.632;5.552;2022-10-18T03:44:06;1021.7954868676485;;;14.070751172384998;0
55014;BME280;40916;51.632;5.552;2022-10-18T03:45:06;1021.7206995163723;;;14.064145832537633;0
55014;BME280;40916;51.632;5.552;2022-10-18T03:46:06;1021.7732364034049;;;14.070751172384998;0
55014;BME280;40916;51.632;5.552;2022-10-18T03:47:06;1021.7256447724276;;;14.077356144754408;0
55014;BME280;40916;51.632;5.552;2022-10-18T03:48:06;1021.7584027629979;;;14.070751172384998;0
55014;BME280;40916;51.632;5.552;2022-10-18T03:49:06;1021.7361523060206;;;14.070751172384998;0
55014;BME280;40916;51.632;5.552;2022-10-18T03:50:07;1021.7676698746178;;;14.09056498749828;0
55014;BME280;40916;51.632;5.552;2022-10-18T03:51:07;1021.7806327361009;;;14.110375498271594;0
55014;BME280;40916;51.632;5.552;2022-10-18T03:52:07;1021.7336350963603;;;14.123580671170465;0
55014;BME280;40916;51.632;5.552;2022-10-18T03:53:07;1021.6854202691542;;;14.123580671170465;0
55014;BME280;40916;51.632;5.552;2022-10-18T03:54:07;1021.6711896861406;;;14.130182707663344;0
55014;BME280;40916;51.632;5.552;2022-10-18T03:55:07;1021.7026672099071;;;14.1499866186284;0
55014;BME280;40916;51.632;5.552;2022-10-18T03:56:07;1021.6482267029459;;;14.163187394936763;0
55014;BME280;40916;51.632;5.552;2022-10-18T03:57:07;1021.637694408878;;;14.169787234118104;0
55014;BME280;40916;51.632;5.552;2022-10-18T03:58:07;1021.596298626081;;;14.163187394936763;0
55014;BME280;40916;51.632;5.552;2022-10-18T03:59:07;1021.532051273941;;;14.1499866186284;0
55014;BME280;40916;51.632;5.552;2022-10-18T04:00:08;1021.5598011957333;;;14.169787234118104;0
55014;BME280;40916;51.632;5.552;2022-10-18T04:01:08;1021.526418406456;;;14.169787234118104;0
55014;BME280;40916;51.632;5.552;2022-10-18T04:02:08;1021.5641029779163;;;14.176386707463084;0
55014;BME280;40916;51.632;5.552;2022-10-18T04:03:08;1021.4862087013315;;;14.176386707463084;0
55014;BME280;40916;51.632;5.552;2022-10-18T04:04:08;1021.5307197099802;;;14.176386707463084;0
55014;BME280;40916;51.632;5.552;2022-10-18T04:05:08;1021.5010457022759;;;14.176386707463084;0
55014;BME280;40916;51.632;5.552;2022-10-18T04:06:08;1021.5270104585932;;;14.176386707463084;0
55014;BME280;40916;51.632;5.552;2022-10-18T04:07:08;1021.4485252696401;;;14.169787234118104;0
55014;BME280;40916;51.632;5.552;2022-10-18T04:08:08;1021.5430274683455;;;14.189584557080273;0
55014;BME280;40916;51.632;5.552;2022-10-18T04:09:08;1021.4899179513858;;;14.176386707463084;0
55014;BME280;40916;51.632;5.552;2022-10-18T04:10:08;1021.4862087013315;;;14.176386707463084;0
55014;BME280;40916;51.632;5.552;2022-10-18T04:11:09;1021.5121734542562;;;14.176386707463084;0
55014;BME280;40916;51.632;5.552;2022-10-18T04:12:09;1021.5635103951478;;;14.169787234118104;0
55014;BME280;40916;51.632;5.552;2022-10-18T04:13:09;1021.5623207026249;;;14.156587189809919;0
55014;BME280;40916;51.632;5.552;2022-10-18T04:14:09;1021.4887333995425;;;14.163187394936763;0
55014;BME280;40916;51.632;5.552;2022-10-18T04:15:09;1021.549265968733;;;14.176386707463084;0